aviador You're here:

LFRL Decoded Metar

LANVEDOC in FRANCE
Report Time2018-07-18 20:00:00
UTC Time2018-07-18 20:11:15
Flight Rules vfr VFR
Wind010° at 08 kt
W.Decomp.*RWY 05: 6.4 kt HW 4.8 kt LCW
W.Rank010° ranks 26
Current wind is above 010° avg. (6.8)
Visibility9999 m
Phenomena:N/A
Clouds:N/A
Expected CloudBase > 1,600 ft AGL from Temp-Dew spread
CeilingNone
Temp17°C (ISA +3)
Dew Point13°C (77% RH)
AAT15.0°C
QNH1019 hPa
Density Alt568 ft
Elevation269 ft
Report Wrong Elevation
Raw Report
METAR LFRL 182000Z AUTO 01008KT CAVOK 17/13 Q1019=

Extra information for LFRL:More info

Metar Taf Metar & Taf Last 4 Metars F.Rules Stats Wind Profile Meteogram Temp Stats Airport Information Weather charts Add Link Nearby VenuesMetar ALERT Operation Metar Decoded Social comments